BEL8EU EBBR-ENBR
Flight info
| Callsign | BEL8EU |
|---|---|
| Flight time | N/A |
| Altitude | 36000 |
| Route | NIK L191 VICOT N873 SPY DCT SUTEB DCT ALUVA ELSEC·RNP·W/17 |
| Aircraft | A320/M-SDE3FGHIRWY/LB1 |
Departure
| Time | N/A |
|---|---|
| Airport | Brussels Airport (EBBR) |
Arrival
| Time | 2026-05-06 20:38 |
|---|---|
| Airport | Bergen Airport, Flesland (ENBR) |
| Time | Latitude | Longitude | Altitude | Speed | Heading |
|---|---|---|---|---|---|
| 2026-05-06 20:30 | 60.21622 | 5.04237 | 3080 ft | 211 kts | 204° |
| 2026-05-06 20:30 | 60.20165 | 4.99637 | 3083 ft | 206 kts | 270° |
| 2026-05-06 20:30 | 60.20565 | 4.96939 | 3078 ft | 205 kts | 305° |
| 2026-05-06 20:31 | 60.21608 | 4.95130 | 3075 ft | 196 kts | 334° |
| 2026-05-06 20:31 | 60.22926 | 4.94610 | 3077 ft | 195 kts | 3° |
| 2026-05-06 20:31 | 60.24240 | 4.95241 | 3082 ft | 195 kts | 15° |
| 2026-05-06 20:31 | 60.25539 | 4.95999 | 3080 ft | 194 kts | 14° |
| 2026-05-06 20:32 | 60.26836 | 4.96751 | 3080 ft | 194 kts | 14° |
| 2026-05-06 20:32 | 60.28133 | 4.97499 | 3080 ft | 194 kts | 14° |
| 2026-05-06 20:32 | 60.29433 | 4.98244 | 3081 ft | 194 kts | 14° |
| 2026-05-06 20:32 | 60.30730 | 4.98989 | 3081 ft | 194 kts | 14° |
| 2026-05-06 20:33 | 60.32029 | 4.99736 | 3082 ft | 194 kts | 14° |
| 2026-05-06 20:33 | 60.33326 | 5.00491 | 3082 ft | 194 kts | 15° |
| 2026-05-06 20:33 | 60.34595 | 5.01311 | 3089 ft | 192 kts | 17° |
| 2026-05-06 20:33 | 60.35843 | 5.02148 | 3085 ft | 187 kts | 17° |
| 2026-05-06 20:34 | 60.37070 | 5.02972 | 3040 ft | 186 kts | 17° |
| 2026-05-06 20:34 | 60.38227 | 5.04125 | 2980 ft | 187 kts | 35° |
| 2026-05-06 20:34 | 60.39110 | 5.05915 | 2925 ft | 175 kts | 54° |
| 2026-05-06 20:34 | 60.39658 | 5.08055 | 2814 ft | 168 kts | 71° |
| 2026-05-06 20:35 | 60.39869 | 5.10279 | 2594 ft | 156 kts | 88° |
| 2026-05-06 20:35 | 60.39774 | 5.12403 | 2386 ft | 149 kts | 104° |
| 2026-05-06 20:35 | 60.39431 | 5.14351 | 2191 ft | 146 kts | 117° |
| 2026-05-06 20:35 | 60.38898 | 5.16081 | 2003 ft | 144 kts | 129° |
| 2026-05-06 20:36 | 60.38208 | 5.17528 | 1815 ft | 142 kts | 141° |
| 2026-05-06 20:36 | 60.37388 | 5.18620 | 1604 ft | 141 kts | 156° |
| 2026-05-06 20:36 | 60.36481 | 5.19349 | 1425 ft | 141 kts | 165° |
| 2026-05-06 20:36 | 60.35522 | 5.19731 | 1221 ft | 141 kts | 171° |
| 2026-05-06 20:37 | 60.34549 | 5.20060 | 1015 ft | 142 kts | 171° |
| 2026-05-06 20:37 | 60.33583 | 5.20389 | 856 ft | 141 kts | 171° |
| 2026-05-06 20:37 | 60.32622 | 5.20711 | 669 ft | 139 kts | 171° |
| 2026-05-06 20:37 | 60.31671 | 5.21038 | 474 ft | 138 kts | 170° |
| 2026-05-06 20:38 | 60.30726 | 5.21366 | 276 ft | 137 kts | 171° |
| 2026-05-06 20:38 | 60.29813 | 5.21666 | 177 ft | 120 kts | 171° |
| 2026-05-06 20:38 | 60.29159 | 5.21879 | 178 ft | 72 kts | 171° |
| 2026-05-06 20:38 | 60.28916 | 5.21980 | 174 ft | 13 kts | 130° |
| 2026-05-06 20:39 | 60.28917 | 5.22151 | 173 ft | 12 kts | 80° |
| 2026-05-06 20:39 | 60.28930 | 5.22298 | 174 ft | 10 kts | 80° |
| 2026-05-06 20:39 | 60.28950 | 5.22402 | 174 ft | 7 kts | 72° |
| 2026-05-06 20:39 | 60.28942 | 5.22489 | 174 ft | 6 kts | 108° |
| 2026-05-06 20:40 | 60.28934 | 5.22538 | 174 ft | 2 kts | 108° |
| 2026-05-06 20:40 | 60.28932 | 5.22549 | 174 ft | 0 kts | 108° |
| 2026-05-06 20:52 | 60.28936 | 5.22527 | 174 ft | 4 kts | 108° |
| 2026-05-06 20:53 | 60.28945 | 5.22476 | 174 ft | 4 kts | 113° |
| 2026-05-06 20:53 | 60.28957 | 5.22429 | 174 ft | 4 kts | 133° |
| 2026-05-06 20:53 | 60.28962 | 5.22418 | 174 ft | 0 kts | 138° |
| 2026-05-06 20:55 | 60.28958 | 5.22419 | 174 ft | 2 kts | 168° |
| 2026-05-06 20:55 | 60.28936 | 5.22369 | 174 ft | 7 kts | 249° |
| 2026-05-06 20:56 | 60.28946 | 5.22279 | 174 ft | 8 kts | 319° |
| 2026-05-06 20:56 | 60.29040 | 5.22243 | 174 ft | 17 kts | 350° |
| 2026-05-06 20:56 | 60.29164 | 5.22199 | 175 ft | 21 kts | 350° |
| 2026-05-06 20:56 | 60.29311 | 5.22150 | 178 ft | 22 kts | 350° |
| 2026-05-06 20:57 | 60.29476 | 5.22095 | 177 ft | 25 kts | 350° |
| 2026-05-06 20:57 | 60.29663 | 5.22033 | 169 ft | 30 kts | 351° |
| 2026-05-06 20:57 | 60.29872 | 5.21966 | 168 ft | 31 kts | 351° |
| 2026-05-06 20:57 | 60.30089 | 5.21898 | 171 ft | 31 kts | 351° |
| 2026-05-06 20:58 | 60.30310 | 5.21824 | 170 ft | 32 kts | 350° |
| 2026-05-06 20:58 | 60.30527 | 5.21750 | 174 ft | 31 kts | 352° |
| 2026-05-06 20:58 | 60.30665 | 5.21646 | 178 ft | 17 kts | 289° |
| 2026-05-06 20:58 | 60.30656 | 5.21417 | 180 ft | 11 kts | 254° |
| 2026-05-06 20:59 | 60.30640 | 5.21394 | 180 ft | 0 kts | 194° |
| 2026-05-06 20:59 | 60.30635 | 5.21394 | 180 ft | 3 kts | 184° |
| 2026-05-06 20:59 | 60.30625 | 5.21397 | 179 ft | 0 kts | 173° |
| 2026-05-06 21:00 | 60.30624 | 5.21397 | 179 ft | 3 kts | 173° |
| 2026-05-06 21:01 | 60.30390 | 5.21474 | 169 ft | 74 kts | 170° |
| 2026-05-06 21:01 | 60.29653 | 5.21716 | 174 ft | 137 kts | 171° |
| 2026-05-06 21:01 | 60.28655 | 5.22046 | 679 ft | 143 kts | 170° |
| 2026-05-06 21:01 | 60.27662 | 5.22384 | 1392 ft | 146 kts | 170° |
| 2026-05-06 21:02 | 60.26656 | 5.22721 | 2072 ft | 147 kts | 171° |
| 2026-05-06 21:02 | 60.25644 | 5.23059 | 2697 ft | 148 kts | 171° |
| 2026-05-06 21:02 | 60.24624 | 5.23399 | 3318 ft | 149 kts | 172° |
| 2026-05-06 21:02 | 60.23550 | 5.23748 | 3720 ft | 166 kts | 174° |
| 2026-05-06 21:03 | 60.22318 | 5.23828 | 4018 ft | 188 kts | 183° |
| 2026-05-06 21:03 | 60.20929 | 5.23746 | 4290 ft | 212 kts | 184° |
| 2026-05-06 21:03 | 60.19368 | 5.23621 | 4648 ft | 237 kts | 184° |
| 2026-05-06 21:03 | 60.17632 | 5.23483 | 5198 ft | 258 kts | 184° |
| 2026-05-06 21:04 | 60.15806 | 5.23347 | 6069 ft | 266 kts | 184° |
| 2026-05-06 21:04 | 60.13929 | 5.23214 | 6803 ft | 280 kts | 184° |
| 2026-05-06 21:04 | 60.11892 | 5.23072 | 7210 ft | 305 kts | 184° |
| 2026-05-06 21:04 | 60.09688 | 5.22925 | 7549 ft | 329 kts | 184° |
| 2026-05-06 21:05 | 60.07318 | 5.22770 | 7808 ft | 353 kts | 184° |